createdAt,value
2023-01-10T00:14:26.975Z,997
2023-01-10T00:43:36.287Z,998
2023-01-10T01:12:42.964Z,999
2023-01-10T01:41:49.743Z,999
2023-01-10T02:11:03.707Z,1000
2023-01-10T02:40:21.084Z,1000
2023-01-10T03:09:19.032Z,1001
2023-01-10T03:38:29.854Z,1001
2023-01-10T04:07:36.594Z,1002
2023-01-10T04:36:42.843Z,1002
2023-01-10T05:06:01.405Z,1003
2023-01-10T05:35:20.207Z,1003
2023-01-10T06:04:34.223Z,1003
2023-01-10T06:33:54.324Z,1004
2023-01-10T07:03:08.798Z,1004
2023-01-10T07:32:19.766Z,1005
2023-01-10T08:01:39.061Z,1005
2023-01-10T08:30:51.505Z,1005
2023-01-10T08:59:52.364Z,1006
2023-01-10T09:29:07.670Z,1006
2023-01-10T09:58:29.896Z,1006
2023-01-10T10:27:50.289Z,1006
2023-01-10T10:57:02.524Z,1006
2023-01-10T11:26:15.458Z,1006
2023-01-10T11:55:30.501Z,1006
2023-01-10T12:24:42.350Z,1005
2023-01-10T12:53:57.867Z,1005
2023-01-10T13:23:10.331Z,1005
2023-01-10T13:52:30.420Z,1004
2023-01-10T14:21:35.083Z,1004
2023-01-10T14:50:41.815Z,1004
2023-01-10T15:19:51.646Z,1004
2023-01-10T15:49:03.547Z,1003
2023-01-10T16:18:06.665Z,1003
2023-01-10T16:47:08.596Z,1003
2023-01-10T17:16:20.659Z,1003
2023-01-10T17:45:16.547Z,1003
2023-01-10T18:14:30.712Z,1003
2023-01-10T18:43:51.244Z,1002
2023-01-10T19:13:05.790Z,1002
2023-01-10T19:42:26.870Z,1002
2023-01-10T20:11:47.705Z,1001
2023-01-10T20:40:59.893Z,1001
2023-01-10T21:10:18.823Z,1001
2023-01-10T21:39:39.442Z,1001
2023-01-10T22:08:47.881Z,1001
2023-01-10T22:38:06.991Z,1001
2023-01-10T23:07:28.989Z,1001
2023-01-10T23:36:55.131Z,1000
